Nearby METAR Reports

 

KPMP - Pompano Beach, Florida, USA
Distance from station: NNW 3mi, 5km
Updated: 06/19/2018 4:53pm
Few Clouds
Few Clouds
 Wind from ENE
Wind: ENE 10 mph , 17 km/h
Temperature: 88°F , 31°C
Heat Index: 95°F , 35°C
Dew Point: 72°F , 22°C
Humidity: 59%
Barometer: 29.97 inHg , 1014.9 hPa
Clouds: Few Clouds
Visibility: 10 miles , 16 km
Cloud details: Few Clouds 2800 ft
2018/06/19 20:53 KPMP 192053Z 06009KT 10SM FEW028 31/22 A2997 RMK AO2 SLP150 T03060217 58010
KFXE - Ft Lauderd/Exec, Florida, USA
Distance from station: W 6mi, 9km
Updated: 06/19/2018 4:53pm
Few Clouds
Few Clouds
 Wind from ENE
Wind: ENE 15 mph , 24 km/h
Temperature: 88°F , 31°C
Heat Index: 95°F , 35°C
Dew Point: 72°F , 22°C
Humidity: 59%
Barometer: 29.97 inHg , 1014.9 hPa
Clouds: Few Clouds
Visibility: 10 miles , 16 km
Cloud details: Few Clouds 4200 ft
2018/06/19 20:53 KFXE 192053Z 06013KT 10SM FEW042 31/22 A2997 RMK AO2 SLP150 T03110222 57011
 
KFLL - Ft Lauderd/Holly, Florida, USA
Distance from station: SSW 11mi, 17km
Updated: 06/19/2018 4:53pm
Few Clouds
Few Clouds
 Wind from E
Wind: E 13 mph , 20 km/h
Temperature: 84°F , 29°C
Heat Index: 92°F , 33°C
Dew Point: 75°F , 24°C
Humidity: 74%
Barometer: 29.96 inHg , 1014.6 hPa
Clouds: Few Clouds
Visibility: 10 miles , 16 km
Cloud details: Few Clouds 3100 ft
2018/06/19 20:53 KFLL 192053Z 09011KT 10SM FEW031 29/24 A2996 RMK AO2 SLP145 T02940239 57013
KBCT - Boca Raton, Florida, USA
Distance from station: N 12mi, 19km
Updated: 06/19/2018 2:47pm
NOT Current
Partly cloudy
Partly cloudy
 Wind from E
Wind: E 14 mph , 22 km/h, Gust: 21 mph , 33 km/h
Temperature: 86°F , 30°C
Heat Index: 92°F , 33°C
Dew Point: 72°F , 22°C
Humidity: 62%
Barometer: 30.01 inHg , 1016.3 hPa
Clouds: Partly cloudy
Visibility: 10 miles , 16 km
Cloud details: Partly cloudy 3000 ft
2018/06/19 18:47 KBCT 191847Z 08012G18KT 10SM SCT030 30/22 A3001
 
KHWO - Hollywood, Florida, USA
Distance from station: SSW 17mi, 27km
Updated: 06/19/2018 4:53pm
Partly cloudy
Partly cloudy
 Wind from ENE
Wind: ENE 15 mph , 24 km/h, Gust: 21 mph , 33 km/h
Temperature: 90°F , 32°C
Heat Index: 97°F , 36°C
Dew Point: 72°F , 22°C
Humidity: 55%
Barometer: 29.98 inHg , 1015.2 hPa
Clouds: Partly cloudy
Visibility: 10 miles , 16 km
Cloud details: Partly cloudy 3500 ft
2018/06/19 20:53 KHWO 192053Z 07013G18KT 10SM SCT035 32/22 A2998 RMK AO2 SLP151 T03170222 56010 $
KOPF - Miami/Opa Locka, Florida, USA
Distance from station: SSW 24mi, 38km
Updated: 06/19/2018 4:53pm
Partly cloudy
Partly cloudy
 Wind from ENE
Wind: ENE 12 mph , 19 km/h
Temperature: 86°F , 30°C
Heat Index: 93°F , 34°C
Dew Point: 73°F , 23°C
Humidity: 66%
Barometer: 29.97 inHg , 1014.9 hPa
Clouds: Partly cloudy
Visibility: 10 miles , 16 km
Cloud details: Partly cloudy 3400 ft
2018/06/19 20:53 KOPF 192053Z 06010KT 10SM SCT034 30/23 A2997 RMK AO2 SLP148 T03000228 56012
 
KMIA - Miami, Florida, USA
Distance from station: SSW 31mi, 50km
Updated: 06/19/2018 4:53pm
Partly cloudy
Partly cloudy
 Wind from E
Wind: E 10 mph , 17 km/h
Temperature: 88°F , 31°C
Heat Index: 96°F , 36°C
Dew Point: 73°F , 23°C
Humidity: 62%
Barometer: 29.96 inHg , 1014.6 hPa
Clouds: Partly cloudy
Visibility: 10 miles , 16 km
Cloud details: Partly cloudy 3500 ft
Partly cloudy 25000 ft
2018/06/19 20:53 KMIA 192053Z 08009KT 10SM SCT035 SCT250 31/23 A2996 RMK AO2 SLP144 T03060233 58014
KPBI - West Palm Beach, Florida, USA
Distance from station: N 33mi, 52km
Updated: 06/19/2018 4:53pm
Partly cloudy
Partly cloudy
 Wind from E
Wind: E 13 mph , 20 km/h, Gust: 26 mph , 43 km/h
Temperature: 82°F , 28°C
Heat Index: 86°F , 30°C
Dew Point: 70°F , 21°C
Humidity: 66%
Barometer: 29.98 inHg , 1015.2 hPa
Clouds: Partly cloudy
Visibility: 10 miles , 16 km
Cloud details: Partly cloudy 3500 ft
Partly cloudy 25000 ft
2018/06/19 20:53 KPBI 192053Z 08011G23KT 10SM SCT035 SCT250 28/21 A2998 RMK AO2 SLP152 T02830211 56014 $
 
KTMB - Miami/Tamiami, Florida, USA
Distance from station: SSW 44mi, 71km
Updated: 06/19/2018 4:53pm
Partly cloudy
Partly cloudy
 Wind from ESE
Wind: ESE 10 mph , 17 km/h
Temperature: 88°F , 31°C
Heat Index: 96°F , 36°C
Dew Point: 73°F , 23°C
Humidity: 62%
Barometer: 29.96 inHg , 1014.6 hPa
Clouds: Partly cloudy
Visibility: 10 miles , 16 km
Cloud details: Partly cloudy 3100 ft
2018/06/19 20:53 KTMB 192053Z 11009KT 10SM SCT031 31/23 A2996 RMK AO2 SLP143 T03060233 58012